Karin S — V2BM6 — position and weather

sailwx.info

Track history (hours):
 
Tides and Currents Weather Stations Pressure Air Temp Water Temp Dewpoint Dewpoint Depression Visibility Wind Speed Wind Dir Waves Ship Positions

Karin S

Last reported at 2014-Aug-30 18:24 UTC. Time now 2014-Sep-01 11:34 UTC.
Position N 36°47' E 003°07'.

Length 148 m; draft 8.5 m.

Type: Ship (hazmat cat B). MMSI: 304871000.

Date/timePositionNaut miles runAvg speedWind from/ knotsBaromVisibWave heightAir tempDewpointWater temp
2014-Aug-30 18:24N 36°47' E 003°07'0 0.0
2014-Aug-30 07:30N 36°47' E 003°07'0 0.0
2014-Aug-30 06:06N 36°47' E 003°07'0 0.1
2014-Aug-30 05:33N 36°47' E 003°07'0 0.0
2014-Aug-30 04:33N 36°47' E 003°07'0 0.0
2014-Aug-30 03:30N 36°47' E 003°07'0 0.0
2014-Aug-30 02:33N 36°47' E 003°07'0 0.0
2014-Aug-30 01:24N 36°47' E 003°07'0 0.0
2014-Aug-30 00:27N 36°47' E 003°07'0 0.0
2014-Aug-29 23:03N 36°47' E 003°07'0 0.0
2014-Aug-29 19:29N 36°47' E 003°07'0 0.0
2014-Aug-29 18:30N 36°47' E 003°07'0 0.1
2014-Aug-29 17:30N 36°47' E 003°07'0 0.1
2014-Aug-29 16:24N 36°47' E 003°07'0 0.1
2014-Aug-29 15:33N 36°47' E 003°07'0 0.1
2014-Aug-29 14:33N 36°47' E 003°07'5 5.1
2014-Aug-29 13:34N 36°51' E 003°04'1110.6
2014-Aug-29 12:33N 36°59' E 002°55'1110.5
2014-Aug-29 11:33N 37°06' E 002°46'1010.1
2014-Aug-29 10:33N 37°13' E 002°37'1210.1
2014-Aug-29 09:22N 37°22' E 002°26'2211.6
2014-Aug-29 07:31N 37°37' E 002°07'1212.5
2014-Aug-29 06:33N 37°45' E 001°56'1212.1
2014-Aug-29 05:32N 37°54' E 001°45'1312.5
2014-Aug-29 04:32N 38°03' E 001°34'1312.6
2014-Aug-29 03:31N 38°12' E 001°22'1212.6
2014-Aug-29 02:33N 38°20' E 001°11'1212.6
2014-Aug-29 01:33N 38°29' E 000°60'1712.8
2014-Aug-29 00:14N 38°41' E 000°45'812.3
2014-Aug-28 23:33N 38°47' E 000°37'5212.0
2014-Aug-28 19:16N 39°23' W 000°11'710.1
2014-Aug-28 18:34N 39°26' W 000°19'0 0.4
2014-Aug-28 17:33N 39°26' W 000°19'0 0.0
2014-Aug-28 16:33N 39°26' W 000°19'0 0.0
2014-Aug-28 15:33N 39°26' W 000°19'0 0.0
2014-Aug-28 14:33N 39°26' W 000°19'0 0.0
2014-Aug-28 13:33N 39°26' W 000°19'0 0.0
2014-Aug-28 12:33N 39°26' W 000°19'0 0.0
2014-Aug-28 11:33N 39°26' W 000°19'0 0.0
2014-Aug-28 10:33N 39°26' W 000°19'0 0.0
2014-Aug-28 09:33N 39°26' W 000°19'0 0.0
2014-Aug-28 08:33N 39°26' W 000°19'0 0.0
2014-Aug-28 07:29N 39°26' W 000°19'0 0.0
2014-Aug-28 06:29N 39°26' W 000°19'0 0.0
2014-Aug-28 05:33N 39°26' W 000°19'7 7.0
2014-Aug-28 04:31N 39°24' W 000°11'6111.4
2014-Aug-27 23:11N 38°49' E 000°54'2110.5
2014-Aug-27 21:11N 38°37' E 001°15'711.5
2014-Aug-27 20:32N 38°33' E 001°24'1211.8
2014-Aug-27 19:32N 38°30' E 001°38'1411.5
2014-Aug-27 18:20N 38°25' E 001°55'911.6
2014-Aug-27 17:32N 38°22' E 002°06'1111.3
2014-Aug-27 16:33N 38°19' E 002°19'1211.0
2014-Aug-27 15:27N 38°15' E 002°34'1011.1
2014-Aug-27 14:33N 38°12' E 002°46'1111.2
2014-Aug-27 13:33N 38°08' E 002°60'1111.2
2014-Aug-27 12:33N 38°05' E 003°13'1514.6
2014-Aug-27 11:33N 38°00' E 003°31'1212.4
2014-Aug-27 10:34N 37°56' E 003°46'1211.9
2014-Aug-27 09:33N 37°53' E 004°00'1211.3
2014-Aug-27 08:29N 37°49' E 004°15'2410.6
2014-Aug-27 06:13N 37°41' E 004°43'710.3
2014-Aug-27 05:33N 37°39' E 004°52'2110.5
2014-Aug-27 03:33N 37°32' E 005°17'1111.3
2014-Aug-27 02:33N 37°29' E 005°30'1111.4
2014-Aug-27 01:33N 37°25' E 005°44'1110.9
2014-Aug-27 00:33N 37°22' E 005°57'1210.8
2014-Aug-26 23:26N 37°18' E 006°11'910.0
2014-Aug-26 22:33N 37°15' E 006°22'1010.3
2014-Aug-26 21:32N 37°11' E 006°34'10 9.8
2014-Aug-26 20:34N 37°07' E 006°44'1010.4
2014-Aug-26 19:33N 37°01' E 006°56'8 1.1
2014-Aug-26 12:17N 36°53' E 006°55'0 0.0
2014-Aug-26 07:11N 36°53' E 006°55'  
Track history (hours):
 
Tides and Currents Weather Stations Pressure Air Temp Water Temp Dewpoint Dewpoint Depression Visibility Wind Speed Wind Dir Waves Ship Positions

Karin S

Last reported at 2014-Aug-30 18:24 UTC. Time now 2014-Sep-01 11:34 UTC.
Position N 36°47' E 003°07'.

Length 148 m; draft 8.5 m.

Type: Ship (hazmat cat B). MMSI: 304871000.

Date/timePositionNaut miles runAvg speedWind from/ knotsBaromVisibWave heightAir tempDewpointWater temp
2014-Aug-30 18:24N 36°47' E 003°07'0 0.0
2014-Aug-30 07:30N 36°47' E 003°07'0 0.0
2014-Aug-30 06:06N 36°47' E 003°07'0 0.1
2014-Aug-30 05:33N 36°47' E 003°07'0 0.0
2014-Aug-30 04:33N 36°47' E 003°07'0 0.0
2014-Aug-30 03:30N 36°47' E 003°07'0 0.0
2014-Aug-30 02:33N 36°47' E 003°07'0 0.0
2014-Aug-30 01:24N 36°47' E 003°07'0 0.0
2014-Aug-30 00:27N 36°47' E 003°07'0 0.0
2014-Aug-29 23:03N 36°47' E 003°07'0 0.0
2014-Aug-29 19:29N 36°47' E 003°07'0 0.0
2014-Aug-29 18:30N 36°47' E 003°07'0 0.1
2014-Aug-29 17:30N 36°47' E 003°07'0 0.1
2014-Aug-29 16:24N 36°47' E 003°07'0 0.1
2014-Aug-29 15:33N 36°47' E 003°07'0 0.1
2014-Aug-29 14:33N 36°47' E 003°07'5 5.1
2014-Aug-29 13:34N 36°51' E 003°04'1110.6
2014-Aug-29 12:33N 36°59' E 002°55'1110.5
2014-Aug-29 11:33N 37°06' E 002°46'1010.1
2014-Aug-29 10:33N 37°13' E 002°37'1210.1
2014-Aug-29 09:22N 37°22' E 002°26'2211.6
2014-Aug-29 07:31N 37°37' E 002°07'1212.5
2014-Aug-29 06:33N 37°45' E 001°56'1212.1
2014-Aug-29 05:32N 37°54' E 001°45'1312.5
2014-Aug-29 04:32N 38°03' E 001°34'1312.6
2014-Aug-29 03:31N 38°12' E 001°22'1212.6
2014-Aug-29 02:33N 38°20' E 001°11'1212.6
2014-Aug-29 01:33N 38°29' E 000°60'1712.8
2014-Aug-29 00:14N 38°41' E 000°45'812.3
2014-Aug-28 23:33N 38°47' E 000°37'5212.0
2014-Aug-28 19:16N 39°23' W 000°11'710.1
2014-Aug-28 18:34N 39°26' W 000°19'0 0.4
2014-Aug-28 17:33N 39°26' W 000°19'0 0.0
2014-Aug-28 16:33N 39°26' W 000°19'0 0.0
2014-Aug-28 15:33N 39°26' W 000°19'0 0.0
2014-Aug-28 14:33N 39°26' W 000°19'0 0.0
2014-Aug-28 13:33N 39°26' W 000°19'0 0.0
2014-Aug-28 12:33N 39°26' W 000°19'0 0.0
2014-Aug-28 11:33N 39°26' W 000°19'0 0.0
2014-Aug-28 10:33N 39°26' W 000°19'0 0.0
2014-Aug-28 09:33N 39°26' W 000°19'0 0.0
2014-Aug-28 08:33N 39°26' W 000°19'0 0.0
2014-Aug-28 07:29N 39°26' W 000°19'0 0.0
2014-Aug-28 06:29N 39°26' W 000°19'0 0.0
2014-Aug-28 05:33N 39°26' W 000°19'7 7.0
2014-Aug-28 04:31N 39°24' W 000°11'6111.4
2014-Aug-27 23:11N 38°49' E 000°54'2110.5
2014-Aug-27 21:11N 38°37' E 001°15'711.5
2014-Aug-27 20:32N 38°33' E 001°24'1211.8
2014-Aug-27 19:32N 38°30' E 001°38'1411.5
2014-Aug-27 18:20N 38°25' E 001°55'911.6
2014-Aug-27 17:32N 38°22' E 002°06'1111.3
2014-Aug-27 16:33N 38°19' E 002°19'1211.0
2014-Aug-27 15:27N 38°15' E 002°34'1011.1
2014-Aug-27 14:33N 38°12' E 002°46'1111.2
2014-Aug-27 13:33N 38°08' E 002°60'1111.2
2014-Aug-27 12:33N 38°05' E 003°13'1514.6
2014-Aug-27 11:33N 38°00' E 003°31'1212.4
2014-Aug-27 10:34N 37°56' E 003°46'1211.9
2014-Aug-27 09:33N 37°53' E 004°00'1211.3
2014-Aug-27 08:29N 37°49' E 004°15'2410.6
2014-Aug-27 06:13N 37°41' E 004°43'710.3
2014-Aug-27 05:33N 37°39' E 004°52'2110.5
2014-Aug-27 03:33N 37°32' E 005°17'1111.3
2014-Aug-27 02:33N 37°29' E 005°30'1111.4
2014-Aug-27 01:33N 37°25' E 005°44'1110.9
2014-Aug-27 00:33N 37°22' E 005°57'1210.8
2014-Aug-26 23:26N 37°18' E 006°11'910.0
2014-Aug-26 22:33N 37°15' E 006°22'1010.3
2014-Aug-26 21:32N 37°11' E 006°34'10 9.8
2014-Aug-26 20:34N 37°07' E 006°44'1010.4
2014-Aug-26 19:33N 37°01' E 006°56'8 1.1
2014-Aug-26 12:17N 36°53' E 006°55'0 0.0
2014-Aug-26 07:11N 36°53' E 006°55'  

Dump ship's entire track history